TAF KHON
KHON 270524Z 2706/2806 28007KT P6SM BKN100 FM271000 30012G24KT P6SM FEW080 SCT200 FM271500 32016G28KT P6SM FEW100 SCT250 FM272200 33013KT P6SM SCT200=
METAR KHON
WC KHON
WS KHON
WV KHON